LCRA/AKT METAR and TAF weather

Enter ICAO airport designator
Station Type Date Time Source
LCRA METAR 2019/12/11 11:50 UTC NOAA

LCRA 111150Z 06016KT 7000 SHRA SCT021 BKN043CB 16/15 Q1012 TEMPO 4000 RMK WHT TEMPO GRN


Station Type Date Time Source
LCRA Decoded METAR 2019/12/11 11:50 UTC NOAA

Akrotiri, Cyprus (LCRA) 34-35N 032-59E 0M
Dec 11, 2019 - 06:50 AM EST / 2019.12.11 1150 UTC
Wind: from the ENE (060 degrees) at 18 MPH (16 KT):0
Visibility: 4 mile(s):0
Sky conditions: mostly cloudy
Weather: rain showers; Cumulonimbus clouds observed
Temperature: 60 F (16 C)
Dew Point: 59 F (15 C)
Relative Humidity: 93%
Pressure (altimeter): 29.88 in. Hg (1012 hPa)
ob: LCRA 111150Z 06016KT 7000 SHRA SCT021 BKN043CB 16/15 Q1012 TEMPO 4000 RMK WHT TEMPO GRN
cycle: 12

Station Type Date Time Source
LCRA TAF 2019/12/11 12:58 UTC NOAA

TAF COR LCRA 111056Z 1112/1206 06016KT 9999 FEW010 BKN030
TEMPO 1112/1206 7000 SHRA SCT010 BKN020TCU PROB30
TEMPO 1112/1115 06016G26KT 4000 TSRA BKN020CB PROB40
TEMPO 1123/1206 3000 TSRA SCT010 BKN020CB

Example: see airport list